Time;durP1;ratioP1;P1;durP2;ratioP2;P2;SDS_P1;SDS_P2;PMS_P1;PMS_P2;Temp;Humidity;BMP_temperature;BMP_pressure;BME280_temperature;BME280_humidity;BME280_pressure;Samples;Min_cycle;Max_cycle;Signal;HPM_P1;HPM_P2
2023/10/03 00:01:31;;;;;;;41.83;18.45;;;;;;;;;;4991714;28;95410;-66
2023/10/03 00:03:59;;;;;;;46.10;20.50;;;;;;;;;;4992293;28;92792;-66
2023/10/03 00:06:26;;;;;;;49.72;19.65;;;;;;;;;;4992468;28;92445;-66
2023/10/03 00:08:54;;;;;;;48.33;19.20;;;;;;;;;;4992752;28;93101;-66
2023/10/03 00:11:22;;;;;;;44.70;19.02;;;;;;;;;;4991946;28;93730;-66
2023/10/03 00:13:50;;;;;;;44.50;18.70;;;;;;;;;;4992012;28;92603;-66
2023/10/03 00:16:17;;;;;;;51.60;19.50;;;;;;;;;;4993032;28;93186;-67
2023/10/03 00:18:43;;;;;;;44.55;19.45;;;;;;;;;;4992398;28;91663;-67
2023/10/03 00:21:10;;;;;;;44.60;19.40;;;;;;;;;;4995869;28;95549;-67
2023/10/03 00:23:36;;;;;;;43.42;17.92;;;;;;;;;;4992657;28;92511;-67
2023/10/03 00:26:04;;;;;;;44.83;19.20;;;;;;;;;;4990448;28;95172;-66
2023/10/03 00:28:30;;;;;;;48.67;19.75;;;;;;;;;;4991212;28;95556;-66
2023/10/03 00:30:58;;;;;;;48.30;19.13;;;;;;;;;;4992036;28;93333;-66
2023/10/03 00:33:26;;;;;;;49.20;19.48;;;;;;;;;;4991842;28;92458;-67
2023/10/03 00:35:52;;;;;;;50.78;20.73;;;;;;;;;;4988914;28;92964;-67
2023/10/03 00:38:19;;;;;;;48.58;19.73;;;;;;;;;;4991691;28;93632;-67
2023/10/03 00:40:49;;;;;;;50.03;20.10;;;;;;;;;;4991761;28;92417;-66
2023/10/03 00:43:16;;;;;;;42.10;18.88;;;;;;;;;;4995400;28;93179;-66
2023/10/03 00:45:43;;;;;;;50.08;19.95;;;;;;;;;;4992545;28;92451;-67
2023/10/03 00:48:11;;;;;;;46.60;20.27;;;;;;;;;;4992331;28;94557;-67
2023/10/03 00:50:38;;;;;;;44.55;19.25;;;;;;;;;;4990557;28;96828;-67
2023/10/03 00:53:09;;;;;;;49.67;19.95;;;;;;;;;;4991747;28;92624;-67
2023/10/03 00:55:38;;;;;;;45.03;19.50;;;;;;;;;;4991362;28;92484;-66
2023/10/03 00:58:17;;;;;;;58.88;20.08;;;;;;;;;;4991647;28;94645;-66
2023/10/03 01:00:45;;;;;;;45.35;19.15;;;;;;;;;;4991538;28;92530;-66
2023/10/03 01:03:27;;;;;;;50.30;20.65;;;;;;;;;;4991360;28;94187;-67
2023/10/03 01:05:57;;;;;;;47.70;19.60;;;;;;;;;;4991343;28;94152;-66
2023/10/03 01:08:23;;;;;;;49.88;19.77;;;;;;;;;;4988579;28;93208;-66
2023/10/03 01:10:51;;;;;;;49.80;19.48;;;;;;;;;;4991659;28;94880;-67
2023/10/03 01:13:20;;;;;;;49.63;19.80;;;;;;;;;;4988188;28;92564;-66
2023/10/03 01:15:53;;;;;;;50.47;20.33;;;;;;;;;;4989630;28;94930;-66
2023/10/03 01:18:22;;;;;;;52.13;21.05;;;;;;;;;;4992158;28;93511;-66
2023/10/03 01:20:55;;;;;;;50.45;20.42;;;;;;;;;;4992333;28;92538;-67
2023/10/03 01:23:22;;;;;;;53.45;21.20;;;;;;;;;;4994536;28;92435;-66
2023/10/03 01:25:49;;;;;;;49.70;20.73;;;;;;;;;;4995148;28;93403;-67
2023/10/03 01:28:15;;;;;;;47.72;20.05;;;;;;;;;;4998105;28;92536;-66
2023/10/03 01:30:42;;;;;;;49.45;21.13;;;;;;;;;;4995180;28;93574;-66
2023/10/03 01:33:09;;;;;;;52.08;20.80;;;;;;;;;;4995911;28;91687;-66
2023/10/03 01:35:36;;;;;;;46.47;20.23;;;;;;;;;;4994842;28;92679;-66
2023/10/03 01:38:02;;;;;;;54.40;20.58;;;;;;;;;;4994214;28;93464;-66
2023/10/03 01:40:29;;;;;;;50.20;20.08;;;;;;;;;;4994123;28;95204;-66
2023/10/03 01:42:55;;;;;;;47.33;20.35;;;;;;;;;;4994776;28;95514;-66
2023/10/03 01:45:23;;;;;;;54.00;21.17;;;;;;;;;;4994640;28;93430;-65
2023/10/03 01:47:50;;;;;;;48.72;19.13;;;;;;;;;;4995425;28;92515;-66
2023/10/03 01:50:17;;;;;;;52.85;20.30;;;;;;;;;;4997343;28;93683;-66
2023/10/03 01:52:44;;;;;;;43.42;20.08;;;;;;;;;;4994586;28;92433;-66
2023/10/03 01:55:12;;;;;;;47.47;20.38;;;;;;;;;;4994192;28;93112;-66
2023/10/03 01:57:40;;;;;;;49.30;19.35;;;;;;;;;;4994338;28;92616;-66
2023/10/03 02:02:51;;;;;;;52.00;20.38;;;;;;;;;;4994534;28;93211;-65
2023/10/03 02:05:24;;;;;;;49.42;19.77;;;;;;;;;;4991990;28;95798;-64
2023/10/03 02:07:52;;;;;;;49.38;20.02;;;;;;;;;;4995046;28;92551;-64
2023/10/03 02:10:19;;;;;;;47.63;19.83;;;;;;;;;;4996760;28;93187;-65
2023/10/03 02:12:51;;;;;;;47.92;20.48;;;;;;;;;;4994661;28;92527;-64
2023/10/03 02:15:22;;;;;;;50.33;19.70;;;;;;;;;;4994688;28;93202;-64
2023/10/03 02:17:49;;;;;;;44.40;20.40;;;;;;;;;;4993891;28;93729;-64
2023/10/03 02:20:20;;;;;;;42.40;20.35;;;;;;;;;;4995066;28;92499;-64
2023/10/03 02:22:54;;;;;;;49.00;20.45;;;;;;;;;;4994866;28;94474;-64
2023/10/03 02:25:22;;;;;;;50.72;19.05;;;;;;;;;;4993453;28;95088;-64
2023/10/03 02:27:49;;;;;;;44.15;18.25;;;;;;;;;;4994375;28;92758;-64
2023/10/03 02:30:20;;;;;;;47.83;20.25;;;;;;;;;;4993021;28;95022;-64
2023/10/03 02:32:47;;;;;;;40.95;18.55;;;;;;;;;;4997489;28;94405;-64
2023/10/03 02:35:16;;;;;;;46.70;19.35;;;;;;;;;;4993967;28;93730;-63
2023/10/03 02:37:42;;;;;;;45.50;19.40;;;;;;;;;;4994252;28;93429;-63
2023/10/03 02:40:09;;;;;;;41.80;18.38;;;;;;;;;;4993955;28;92523;-64
2023/10/03 02:42:38;;;;;;;42.50;19.05;;;;;;;;;;4992637;28;93180;-64
2023/10/03 02:45:06;;;;;;;44.03;19.20;;;;;;;;;;4993732;28;93428;-65
2023/10/03 02:47:34;;;;;;;44.78;18.88;;;;;;;;;;4994981;28;91751;-64
2023/10/03 02:50:00;;;;;;;48.00;19.23;;;;;;;;;;4993998;28;92393;-64
2023/10/03 02:52:27;;;;;;;42.17;16.63;;;;;;;;;;4994265;28;93413;-63
2023/10/03 02:54:53;;;;;;;47.55;18.65;;;;;;;;;;4995188;28;95107;-64
2023/10/03 02:57:20;;;;;;;51.55;18.95;;;;;;;;;;4993410;28;93403;-64
2023/10/03 02:59:47;;;;;;;41.53;17.52;;;;;;;;;;4993897;28;92659;-64
2023/10/03 03:02:14;;;;;;;49.60;18.67;;;;;;;;;;4994166;28;93590;-63
2023/10/03 03:04:43;;;;;;;46.63;17.42;;;;;;;;;;4992724;28;92371;-63
2023/10/03 03:07:10;;;;;;;51.90;18.07;;;;;;;;;;4993637;28;92815;-64
2023/10/03 03:09:36;;;;;;;50.90;17.75;;;;;;;;;;4993460;28;94217;-64
2023/10/03 03:12:06;;;;;;;40.63;17.75;;;;;;;;;;4994522;28;92641;-64
2023/10/03 03:14:33;;;;;;;46.50;17.63;;;;;;;;;;4993433;28;92521;-64
2023/10/03 03:16:59;;;;;;;43.97;17.33;;;;;;;;;;4992710;28;93023;-63
2023/10/03 03:19:27;;;;;;;39.85;16.83;;;;;;;;;;4991563;28;94966;-64
2023/10/03 03:21:57;;;;;;;45.15;16.95;;;;;;;;;;4993708;28;95951;-64
2023/10/03 03:24:33;;;;;;;41.60;16.83;;;;;;;;;;4993266;28;93373;-64
2023/10/03 03:27:00;;;;;;;38.92;15.68;;;;;;;;;;4990003;28;92429;-64
2023/10/03 03:29:35;;;;;;;43.25;16.52;;;;;;;;;;4993006;28;93111;-64
2023/10/03 03:32:02;;;;;;;42.28;15.95;;;;;;;;;;4989571;28;93631;-63
2023/10/03 03:34:30;;;;;;;33.85;14.18;;;;;;;;;;4989839;28;92765;-63
2023/10/03 03:37:22;;;;;;;31.42;14.38;;;;;;;;;;4992957;28;93250;-64
2023/10/03 03:39:53;;;;;;;34.97;13.68;;;;;;;;;;4993184;28;94639;-64
2023/10/03 03:42:22;;;;;;;30.73;12.43;;;;;;;;;;4993224;28;93183;-64
2023/10/03 03:44:49;;;;;;;32.47;13.95;;;;;;;;;;4989851;28;95754;-64
2023/10/03 03:47:18;;;;;;;34.33;12.77;;;;;;;;;;4993333;28;92461;-64
2023/10/03 03:49:46;;;;;;;32.85;12.80;;;;;;;;;;4993363;28;94098;-64
2023/10/03 03:52:16;;;;;;;30.55;12.77;;;;;;;;;;4992391;28;93882;-64
2023/10/03 03:54:42;;;;;;;27.33;12.33;;;;;;;;;;4992025;28;92560;-64
2023/10/03 03:57:09;;;;;;;24.85;10.77;;;;;;;;;;4992438;28;93543;-64
2023/10/03 03:59:35;;;;;;;31.27;12.00;;;;;;;;;;4993051;28;93411;-64
2023/10/03 04:02:03;;;;;;;26.17;10.35;;;;;;;;;;4996171;28;92022;-63
2023/10/03 04:04:29;;;;;;;27.30;10.95;;;;;;;;;;4991830;28;93324;-64
2023/10/03 04:06:55;;;;;;;23.80;10.15;;;;;;;;;;4993101;28;92547;-64
2023/10/03 04:09:22;;;;;;;36.25;10.20;;;;;;;;;;4991416;28;95004;-64
2023/10/03 04:11:48;;;;;;;30.70;10.50;;;;;;;;;;4992463;28;94037;-64
2023/10/03 04:14:15;;;;;;;22.67;8.65;;;;;;;;;;4991541;28;92669;-63
2023/10/03 04:16:43;;;;;;;25.23;8.45;;;;;;;;;;4993824;28;94159;-64
2023/10/03 04:19:10;;;;;;;27.33;8.38;;;;;;;;;;4992995;28;93442;-64
2023/10/03 04:21:40;;;;;;;18.38;6.97;;;;;;;;;;4996327;28;92500;-66
2023/10/03 04:24:09;;;;;;;32.60;6.78;;;;;;;;;;4993099;28;93480;-66
2023/10/03 04:26:36;;;;;;;27.02;6.20;;;;;;;;;;4993484;28;91670;-66
2023/10/03 04:29:03;;;;;;;22.55;6.30;;;;;;;;;;4989298;28;92502;-66
2023/10/03 04:31:30;;;;;;;29.83;5.80;;;;;;;;;;4992636;28;94755;-66
2023/10/03 04:33:56;;;;;;;23.77;5.90;;;;;;;;;;4991828;28;95420;-66
2023/10/03 04:36:24;;;;;;;22.42;6.18;;;;;;;;;;4992473;28;95379;-66
2023/10/03 04:38:51;;;;;;;26.80;5.45;;;;;;;;;;4991986;28;93566;-66
2023/10/03 04:41:17;;;;;;;20.05;7.35;;;;;;;;;;4993239;28;92728;-66
2023/10/03 04:43:44;;;;;;;21.35;5.93;;;;;;;;;;4995457;28;93141;-66
2023/10/03 04:46:11;;;;;;;21.35;6.60;;;;;;;;;;4993380;28;92415;-66
2023/10/03 04:48:38;;;;;;;19.55;6.20;;;;;;;;;;4993435;28;93104;-66
2023/10/03 04:51:05;;;;;;;23.98;5.85;;;;;;;;;;4992132;28;93676;-66
2023/10/03 04:53:31;;;;;;;22.48;5.97;;;;;;;;;;4992546;28;92587;-66
2023/10/03 04:55:57;;;;;;;22.05;5.80;;;;;;;;;;4993383;28;94171;-66
2023/10/03 04:58:24;;;;;;;27.85;6.75;;;;;;;;;;4997522;28;95855;-66
2023/10/03 05:00:50;;;;;;;21.08;5.90;;;;;;;;;;4999119;28;92681;-66
2023/10/03 05:03:19;;;;;;;19.30;5.28;;;;;;;;;;4998974;28;93110;-66
2023/10/03 05:05:48;;;;;;;28.65;6.43;;;;;;;;;;5002148;28;93428;-68
2023/10/03 05:08:15;;;;;;;20.40;5.93;;;;;;;;;;4998985;28;92432;-66
2023/10/03 05:10:42;;;;;;;24.92;5.78;;;;;;;;;;4998191;28;93233;-66
2023/10/03 05:13:08;;;;;;;29.20;5.65;;;;;;;;;;4999439;28;92429;-66
2023/10/03 05:15:35;;;;;;;21.48;5.85;;;;;;;;;;5000047;28;93162;-66
2023/10/03 05:18:03;;;;;;;16.80;5.75;;;;;;;;;;4998983;28;93344;-66
2023/10/03 05:20:37;;;;;;;14.38;4.57;;;;;;;;;;4999257;28;92583;-66
2023/10/03 05:23:05;;;;;;;15.05;4.40;;;;;;;;;;4993586;28;94810;-66
2023/10/03 05:25:36;;;;;;;14.88;4.07;;;;;;;;;;4999297;28;94470;-66
2023/10/03 05:28:06;;;;;;;10.40;4.60;;;;;;;;;;5002217;28;92785;-66
2023/10/03 05:30:35;;;;;;;15.95;4.32;;;;;;;;;;5002826;28;93362;-66
2023/10/03 05:33:02;;;;;;;23.33;3.92;;;;;;;;;;4999105;28;92545;-66
2023/10/03 05:35:29;;;;;;;13.68;3.97;;;;;;;;;;4999039;28;94151;-66
2023/10/03 05:37:55;;;;;;;13.32;4.05;;;;;;;;;;4998847;28;94457;-66
2023/10/03 05:40:22;;;;;;;14.95;4.25;;;;;;;;;;4999546;28;92016;-66
2023/10/03 05:42:49;;;;;;;15.98;4.45;;;;;;;;;;4997936;28;92452;-66
2023/10/03 05:45:15;;;;;;;21.45;4.50;;;;;;;;;;4999102;28;93346;-66
2023/10/03 05:47:45;;;;;;;10.05;3.60;;;;;;;;;;4997351;28;95548;-66
2023/10/03 05:50:11;;;;;;;20.70;3.97;;;;;;;;;;5001965;28;95969;-66
2023/10/03 05:52:39;;;;;;;12.70;3.90;;;;;;;;;;4998787;28;92397;-66
2023/10/03 05:55:06;;;;;;;24.67;6.45;;;;;;;;;;4995691;28;93313;-66
2023/10/03 05:57:33;;;;;;;16.73;3.90;;;;;;;;;;4998518;28;94403;-65
2023/10/03 06:00:00;;;;;;;17.13;3.85;;;;;;;;;;4997972;28;92429;-66
2023/10/03 06:02:26;;;;;;;17.27;4.03;;;;;;;;;;4998691;28;94414;-66
2023/10/03 06:04:54;;;;;;;23.17;8.93;;;;;;;;;;4998324;28;92775;-68
2023/10/03 06:07:20;;;;;;;14.32;4.50;;;;;;;;;;4998774;28;92417;-66
2023/10/03 06:09:47;;;;;;;12.18;3.95;;;;;;;;;;4997028;28;93092;-66
2023/10/03 06:12:14;;;;;;;14.75;4.18;;;;;;;;;;4993378;28;94824;-66
2023/10/03 06:14:40;;;;;;;15.77;3.45;;;;;;;;;;4994809;28;95556;-66
2023/10/03 06:17:08;;;;;;;12.85;4.35;;;;;;;;;;4991054;28;93827;-66
2023/10/03 06:19:35;;;;;;;14.85;3.88;;;;;;;;;;4994956;28;92515;-66
2023/10/03 06:22:02;;;;;;;11.43;3.58;;;;;;;;;;4995088;28;93129;-66
2023/10/03 06:24:31;;;;;;;25.88;4.00;;;;;;;;;;4994419;28;93246;-66
2023/10/03 06:26:57;;;;;;;16.15;3.90;;;;;;;;;;4995339;28;92813;-66
2023/10/03 06:29:23;;;;;;;12.43;3.97;;;;;;;;;;4995484;28;94019;-66
2023/10/03 06:31:51;;;;;;;12.25;3.67;;;;;;;;;;4996957;28;93623;-66
2023/10/03 06:34:18;;;;;;;11.27;3.70;;;;;;;;;;4995010;28;93163;-66
2023/10/03 06:36:44;;;;;;;18.00;4.18;;;;;;;;;;4992568;28;95794;-66
2023/10/03 06:39:12;;;;;;;16.02;3.78;;;;;;;;;;4994352;28;92543;-66
2023/10/03 06:41:39;;;;;;;16.63;3.70;;;;;;;;;;4991046;28;93198;-64
2023/10/03 06:44:05;;;;;;;14.48;3.83;;;;;;;;;;4994155;28;93408;-63
2023/10/03 06:46:34;;;;;;;14.50;4.45;;;;;;;;;;4994160;28;92647;-63
2023/10/03 06:49:01;;;;;;;10.68;3.47;;;;;;;;;;4993495;28;94070;-63
2023/10/03 06:51:27;;;;;;;9.90;3.17;;;;;;;;;;4994763;28;93692;-63
2023/10/03 06:53:54;;;;;;;16.55;3.97;;;;;;;;;;4998028;28;91817;-63
2023/10/03 06:56:20;;;;;;;17.77;3.80;;;;;;;;;;4994109;28;93427;-64
2023/10/03 06:58:47;;;;;;;11.45;3.70;;;;;;;;;;4993865;28;94040;-63
2023/10/03 07:01:13;;;;;;;11.85;3.38;;;;;;;;;;4992847;28;94994;-64
2023/10/03 07:03:40;;;;;;;11.68;3.47;;;;;;;;;;4994274;28;93265;-63
2023/10/03 07:06:07;;;;;;;14.15;3.58;;;;;;;;;;4994641;28;92562;-63
2023/10/03 07:08:34;;;;;;;11.45;3.80;;;;;;;;;;4994068;28;93156;-64
2023/10/03 07:11:01;;;;;;;13.60;3.78;;;;;;;;;;4993896;28;93185;-63
2023/10/03 07:13:27;;;;;;;9.57;2.97;;;;;;;;;;4993893;28;92450;-63
2023/10/03 07:15:57;;;;;;;11.65;2.80;;;;;;;;;;4997230;28;93174;-63
2023/10/03 07:18:24;;;;;;;7.55;2.35;;;;;;;;;;4994709;28;91709;-64
2023/10/03 07:20:51;;;;;;;12.32;2.60;;;;;;;;;;4993746;28;92419;-64
2023/10/03 07:23:19;;;;;;;18.58;3.80;;;;;;;;;;4993386;28;93385;-63
2023/10/03 07:25:46;;;;;;;6.43;2.50;;;;;;;;;;4992591;28;94832;-64
2023/10/03 07:28:13;;;;;;;8.55;2.03;;;;;;;;;;4993658;28;96535;-63
2023/10/03 07:30:41;;;;;;;8.40;1.90;;;;;;;;;;4998609;28;93810;-63
2023/10/03 07:33:08;;;;;;;9.40;1.95;;;;;;;;;;4994069;28;92546;-63
2023/10/03 07:35:37;;;;;;;11.98;2.00;;;;;;;;;;4992944;28;93864;-63
2023/10/03 07:38:04;;;;;;;9.70;2.20;;;;;;;;;;4995838;28;93790;-63
2023/10/03 07:40:30;;;;;;;11.07;2.20;;;;;;;;;;4994123;28;94130;-63
2023/10/03 07:42:56;;;;;;;14.60;3.28;;;;;;;;;;4994030;28;91825;-63
2023/10/03 07:45:23;;;;;;;6.40;2.00;;;;;;;;;;4993798;28;92663;-63
2023/10/03 07:47:50;;;;;;;8.20;2.38;;;;;;;;;;4993334;28;93138;-63
2023/10/03 07:50:18;;;;;;;11.23;2.30;;;;;;;;;;4991956;28;95589;-64
2023/10/03 07:52:48;;;;;;;6.95;1.77;;;;;;;;;;4993359;28;92309;-66
2023/10/03 07:55:19;;;;;;;11.63;2.28;;;;;;;;;;4990372;28;92862;-67
2023/10/03 07:57:46;;;;;;;10.23;2.30;;;;;;;;;;4993270;28;94387;-66
2023/10/03 08:00:17;;;;;;;10.23;2.65;;;;;;;;;;4993582;28;92430;-66
2023/10/03 08:02:43;;;;;;;11.23;2.47;;;;;;;;;;4993647;28;93323;-66
2023/10/03 08:05:11;;;;;;;10.00;2.47;;;;;;;;;;4993894;28;92554;-65
2023/10/03 08:07:38;;;;;;;5.18;1.45;;;;;;;;;;4993792;28;93117;-65
2023/10/03 08:10:07;;;;;;;5.70;1.42;;;;;;;;;;4992713;28;93539;-66
2023/10/03 08:12:38;;;;;;;5.70;1.80;;;;;;;;;;4992995;28;92419;-66
2023/10/03 08:15:16;;;;;;;8.05;1.63;;;;;;;;;;4990569;28;95212;-66
2023/10/03 08:17:44;;;;;;;12.10;1.30;;;;;;;;;;4989907;28;94704;-66
2023/10/03 08:20:14;;;;;;;3.55;0.85;;;;;;;;;;4995575;28;92665;-66
2023/10/03 08:22:41;;;;;;;9.82;2.35;;;;;;;;;;4993472;28;92567;-66
2023/10/03 08:25:09;;;;;;;6.90;1.70;;;;;;;;;;4993358;28;92684;-66
2023/10/03 08:27:35;;;;;;;9.23;1.48;;;;;;;;;;4992652;28;93068;-66
2023/10/03 08:30:03;;;;;;;7.60;1.58;;;;;;;;;;4993132;28;92456;-66
2023/10/03 08:32:31;;;;;;;10.80;1.42;;;;;;;;;;4992491;28;91932;-66
2023/10/03 08:34:57;;;;;;;6.07;1.20;;;;;;;;;;4993057;28;92605;-66
2023/10/03 08:37:24;;;;;;;6.28;1.63;;;;;;;;;;4992988;28;93419;-66
2023/10/03 08:39:51;;;;;;;5.88;1.48;;;;;;;;;;4990535;28;94877;-66
2023/10/03 08:42:21;;;;;;;9.13;1.55;;;;;;;;;;4996030;28;95662;-66
2023/10/03 08:44:53;;;;;;;9.18;1.60;;;;;;;;;;4992151;28;92419;-66
2023/10/03 08:47:29;;;;;;;10.75;1.58;;;;;;;;;;4990360;28;92713;-66
2023/10/03 08:50:11;;;;;;;6.65;1.60;;;;;;;;;;4991886;28;93715;-66
2023/10/03 08:52:47;;;;;;;7.68;1.45;;;;;;;;;;4993032;28;92563;-66
2023/10/03 08:55:15;;;;;;;8.68;1.73;;;;;;;;;;4993234;28;93832;-66
2023/10/03 08:57:41;;;;;;;7.15;1.48;;;;;;;;;;4993146;28;93004;-67
2023/10/03 09:00:09;;;;;;;10.52;2.03;;;;;;;;;;4991877;28;92585;-66
2023/10/03 09:02:49;;;;;;;8.65;1.67;;;;;;;;;;4992571;28;93227;-64
2023/10/03 09:05:20;;;;;;;7.72;1.30;;;;;;;;;;4994148;28;96587;-64
2023/10/03 09:07:47;;;;;;;5.05;1.60;;;;;;;;;;4992854;28;95367;-64
2023/10/03 09:10:22;;;;;;;3.88;1.00;;;;;;;;;;4988772;28;92813;-63
2023/10/03 09:13:03;;;;;;;7.20;1.20;;;;;;;;;;4989190;28;92471;-63
2023/10/03 09:15:37;;;;;;;7.00;1.13;;;;;;;;;;4992883;28;94151;-63
2023/10/03 09:18:09;;;;;;;6.22;1.25;;;;;;;;;;4991922;28;97623;-63
2023/10/03 09:20:36;;;;;;;4.50;0.80;;;;;;;;;;4992256;28;93798;-64
2023/10/03 09:23:06;;;;;;;4.68;0.88;;;;;;;;;;4991129;28;93264;-64
2023/10/03 09:25:34;;;;;;;5.07;0.82;;;;;;;;;;4992284;28;94928;-64
2023/10/03 09:28:07;;;;;;;4.68;1.00;;;;;;;;;;4995532;28;92464;-63
2023/10/03 09:30:39;;;;;;;4.75;0.90;;;;;;;;;;4988899;28;94991;-64
2023/10/03 09:33:06;;;;;;;6.80;0.90;;;;;;;;;;4992010;28;92464;-64
2023/10/03 09:35:33;;;;;;;7.68;0.93;;;;;;;;;;4992017;28;93668;-63
2023/10/03 09:38:05;;;;;;;4.28;0.95;;;;;;;;;;4992014;28;93604;-63
2023/10/03 09:40:47;;;;;;;4.93;1.45;;;;;;;;;;4992101;28;92495;-64
2023/10/03 09:43:16;;;;;;;9.90;1.17;;;;;;;;;;4991743;28;93036;-64
2023/10/03 09:45:46;;;;;;;4.88;0.80;;;;;;;;;;4995518;28;94467;-63
2023/10/03 09:48:13;;;;;;;9.40;1.23;;;;;;;;;;4996221;28;91828;-63
2023/10/03 09:50:51;;;;;;;8.57;1.00;;;;;;;;;;4998923;28;93252;-63
2023/10/03 09:53:18;;;;;;;7.45;1.33;;;;;;;;;;4992416;28;92838;-63
2023/10/03 09:55:47;;;;;;;7.15;1.20;;;;;;;;;;4993548;28;94755;-63
2023/10/03 09:58:14;;;;;;;4.45;1.15;;;;;;;;;;4994918;28;93412;-63
2023/10/03 10:00:50;;;;;;;7.35;1.20;;;;;;;;;;4994820;28;92616;-63
2023/10/03 10:03:26;;;;;;;7.57;1.05;;;;;;;;;;4991813;28;93297;-63
2023/10/03 10:06:14;;;;;;;5.43;1.25;;;;;;;;;;4992272;28;94392;-63
2023/10/03 10:08:41;;;;;;;6.88;1.42;;;;;;;;;;4995378;28;92800;-63
2023/10/03 10:11:09;;;;;;;3.67;1.05;;;;;;;;;;4995691;28;93977;-63
2023/10/03 10:13:37;;;;;;;5.90;1.25;;;;;;;;;;4998250;28;92697;-63
2023/10/03 10:16:20;;;;;;;4.35;1.00;;;;;;;;;;4995414;28;93506;-63
2023/10/03 10:18:51;;;;;;;6.90;1.25;;;;;;;;;;4991392;28;94423;-63
2023/10/03 10:21:18;;;;;;;;;;;;;;;;;;4990307;28;95065;-63
2023/10/03 10:24:04;;;;;;;6.78;1.25;;;;;;;;;;4995632;28;125844;-63
2023/10/03 10:26:31;;;;;;;8.60;1.75;;;;;;;;;;4991990;28;94874;-63
2023/10/03 10:29:05;;;;;;;3.47;1.10;;;;;;;;;;4995301;28;92559;-64
2023/10/03 10:31:57;;;;;;;6.85;1.20;;;;;;;;;;4994539;28;93118;-63
2023/10/03 10:34:27;;;;;;;7.47;1.05;;;;;;;;;;4994563;28;93390;-63
2023/10/03 10:36:53;;;;;;;2.88;0.88;;;;;;;;;;4994808;28;93079;-63
2023/10/03 10:39:23;;;;;;;6.32;1.20;;;;;;;;;;4994952;28;92689;-63
2023/10/03 10:42:09;;;;;;;8.47;1.10;;;;;;;;;;4990525;28;92480;-62
2023/10/03 10:44:35;;;;;;;10.82;1.33;;;;;;;;;;4993108;28;94020;-63
2023/10/03 10:47:05;;;;;;;4.30;1.08;;;;;;;;;;4992869;28;95115;-63
2023/10/03 10:49:31;;;;;;;9.10;1.13;;;;;;;;;;4994247;28;92597;-63
2023/10/03 10:51:59;;;;;;;4.78;1.10;;;;;;;;;;4994643;28;93073;-62
2023/10/03 10:54:29;;;;;;;6.45;1.27;;;;;;;;;;4993501;28;94263;-63
2023/10/03 10:57:03;;;;;;;6.03;1.40;;;;;;;;;;4997599;28;92427;-63
2023/10/03 10:59:31;;;;;;;3.88;1.00;;;;;;;;;;4994183;28;93403;-63
2023/10/03 11:01:58;;;;;;;5.60;1.20;;;;;;;;;;4993905;28;92511;-63
2023/10/03 11:04:25;;;;;;;6.25;1.15;;;;;;;;;;4995087;28;91817;-63
2023/10/03 11:06:54;;;;;;;6.30;1.52;;;;;;;;;;4993754;28;93445;-63
2023/10/03 11:09:22;;;;;;;2.97;1.38;;;;;;;;;;4990632;28;92487;-62
2023/10/03 11:11:52;;;;;;;3.78;1.50;;;;;;;;;;4989285;28;94817;-63
2023/10/03 11:14:26;;;;;;;5.70;1.55;;;;;;;;;;4993637;28;93407;-63
2023/10/03 11:16:52;;;;;;;7.05;1.75;;;;;;;;;;4990974;28;92527;-63
2023/10/03 11:19:18;;;;;;;4.25;1.35;;;;;;;;;;4996204;28;93028;-63
2023/10/03 11:21:45;;;;;;;4.88;1.40;;;;;;;;;;4994853;28;92781;-62
2023/10/03 11:24:13;;;;;;;7.75;1.83;;;;;;;;;;4994253;28;93111;-63
2023/10/03 11:26:49;;;;;;;6.03;1.60;;;;;;;;;;4994067;28;92443;-63
2023/10/03 11:29:36;;;;;;;3.42;1.08;;;;;;;;;;4994509;28;91910;-63
2023/10/03 11:32:15;;;;;;;3.78;1.30;;;;;;;;;;4991052;28;92524;-62
2023/10/03 11:34:42;;;;;;;7.95;1.60;;;;;;;;;;4994015;28;93347;-63
2023/10/03 11:37:08;;;;;;;5.75;1.65;;;;;;;;;;4991794;28;94997;-63
2023/10/03 11:39:38;;;;;;;10.63;2.42;;;;;;;;;;4993087;28;95831;-64
2023/10/03 11:42:23;;;;;;;6.63;1.77;;;;;;;;;;4995770;28;92720;-63
2023/10/03 11:45:02;;;;;;;9.23;1.88;;;;;;;;;;4993278;28;93110;-63
2023/10/03 11:47:28;;;;;;;8.95;2.10;;;;;;;;;;4990907;28;93633;-63
2023/10/03 11:49:56;;;;;;;7.75;1.67;;;;;;;;;;4993686;28;92660;-63
2023/10/03 11:52:23;;;;;;;12.35;2.00;;;;;;;;;;4990151;28;93061;-63
2023/10/03 11:54:49;;;;;;;10.23;2.50;;;;;;;;;;4993477;28;93714;-63
2023/10/03 11:57:16;;;;;;;12.10;2.80;;;;;;;;;;4994167;28;93199;-63
2023/10/03 11:59:42;;;;;;;9.23;2.30;;;;;;;;;;4993728;28;93532;-63
2023/10/03 12:02:09;;;;;;;6.47;1.73;;;;;;;;;;4991950;28;96870;-63
2023/10/03 12:04:38;;;;;;;11.68;2.58;;;;;;;;;;4995995;28;92464;-63
2023/10/03 12:07:04;;;;;;;10.18;2.60;;;;;;;;;;4991731;28;93364;-63
2023/10/03 12:09:31;;;;;;;8.10;2.15;;;;;;;;;;4992617;28;92476;-64
2023/10/03 12:11:57;;;;;;;14.23;2.22;;;;;;;;;;4993556;28;93091;-63
2023/10/03 12:14:24;;;;;;;7.07;2.15;;;;;;;;;;4993150;28;93491;-63
2023/10/03 12:16:51;;;;;;;10.00;2.28;;;;;;;;;;4993181;28;92665;-63
2023/10/03 12:19:19;;;;;;;10.40;2.33;;;;;;;;;;4993700;28;93182;-63
2023/10/03 12:21:46;;;;;;;7.40;2.08;;;;;;;;;;4992593;28;93386;-63
2023/10/03 12:24:12;;;;;;;11.90;2.58;;;;;;;;;;4993597;28;92584;-64
2023/10/03 12:26:38;;;;;;;6.30;1.90;;;;;;;;;;4994707;28;94986;-63
2023/10/03 12:29:05;;;;;;;10.27;2.40;;;;;;;;;;4991462;28;92641;-64
2023/10/03 12:31:32;;;;;;;10.25;2.65;;;;;;;;;;4992411;28;93153;-63
2023/10/03 12:34:01;;;;;;;9.32;1.98;;;;;;;;;;4993181;28;93552;-63
2023/10/03 12:36:29;;;;;;;9.82;2.50;;;;;;;;;;4992313;28;92451;-63
2023/10/03 12:38:56;;;;;;;9.38;2.13;;;;;;;;;;4993179;28;94127;-63
2023/10/03 12:41:31;;;;;;;7.72;2.47;;;;;;;;;;4992049;28;93219;-63
2023/10/03 12:43:58;;;;;;;6.22;2.25;;;;;;;;;;4989161;28;91753;-63
2023/10/03 12:46:24;;;;;;;9.50;2.42;;;;;;;;;;4992206;28;93646;-64
2023/10/03 12:48:52;;;;;;;14.15;3.00;;;;;;;;;;4992862;28;92768;-63
2023/10/03 12:51:19;;;;;;;6.35;1.95;;;;;;;;;;4991386;28;94822;-63
2023/10/03 12:53:45;;;;;;;11.68;2.47;;;;;;;;;;4992455;28;93822;-63
2023/10/03 12:56:12;;;;;;;8.52;2.78;;;;;;;;;;4992356;28;92470;-64
2023/10/03 12:58:39;;;;;;;8.85;2.40;;;;;;;;;;4990994;28;94124;-63
2023/10/03 13:01:05;;;;;;;7.25;2.15;;;;;;;;;;4992123;28;92846;-63
2023/10/03 13:03:32;;;;;;;8.95;2.60;;;;;;;;;;4992328;28;92567;-63
2023/10/03 13:06:00;;;;;;;7.53;1.80;;;;;;;;;;4992989;28;93336;-63
2023/10/03 13:08:27;;;;;;;9.40;2.50;;;;;;;;;;4994904;28;92924;-63
2023/10/03 13:11:01;;;;;;;9.68;2.40;;;;;;;;;;4992236;28;92527;-62
2023/10/03 13:13:28;;;;;;;9.43;2.20;;;;;;;;;;4988699;28;94495;-63
2023/10/03 13:15:54;;;;;;;8.52;2.67;;;;;;;;;;4990926;28;94932;-63
2023/10/03 13:18:23;;;;;;;13.57;3.50;;;;;;;;;;4995358;28;95493;-63
2023/10/03 13:20:52;;;;;;;8.68;2.55;;;;;;;;;;4996290;28;93642;-63
2023/10/03 13:23:19;;;;;;;9.70;2.00;;;;;;;;;;4995867;28;92485;-63
2023/10/03 13:25:46;;;;;;;11.18;2.25;;;;;;;;;;4996828;28;93141;-63
2023/10/03 13:28:13;;;;;;;12.93;2.40;;;;;;;;;;4995973;28;93561;-63
2023/10/03 13:30:39;;;;;;;9.73;2.08;;;;;;;;;;4998452;28;92547;-63
2023/10/03 13:33:06;;;;;;;10.15;1.67;;;;;;;;;;4997058;28;93641;-63
2023/10/03 13:35:35;;;;;;;9.57;2.13;;;;;;;;;;4996211;28;92481;-63
2023/10/03 13:38:03;;;;;;;6.82;1.65;;;;;;;;;;4995838;28;92502;-63
2023/10/03 13:40:29;;;;;;;5.60;1.80;;;;;;;;;;4993965;28;95770;-63
2023/10/03 13:42:57;;;;;;;5.50;1.70;;;;;;;;;;4995809;28;92864;-63
2023/10/03 13:45:24;;;;;;;4.80;1.60;;;;;;;;;;4995882;28;93123;-66
2023/10/03 13:47:51;;;;;;;10.75;2.13;;;;;;;;;;4995913;28;94364;-65
2023/10/03 13:50:17;;;;;;;6.10;2.13;;;;;;;;;;4994700;28;93107;-65
2023/10/03 13:52:46;;;;;;;4.85;1.80;;;;;;;;;;4997911;28;93605;-66
2023/10/03 13:55:14;;;;;;;4.50;2.15;;;;;;;;;;4995641;28;92455;-65
2023/10/03 13:57:40;;;;;;;8.50;2.08;;;;;;;;;;4996107;28;91947;-65
2023/10/03 14:00:12;;;;;;;9.40;2.25;;;;;;;;;;4995760;28;93419;-65
2023/10/03 14:02:39;;;;;;;7.90;2.10;;;;;;;;;;4995735;28;92740;-65
2023/10/03 14:05:07;;;;;;;7.63;1.88;;;;;;;;;;4993904;28;94968;-66
2023/10/03 14:07:34;;;;;;;7.97;2.22;;;;;;;;;;4994984;28;93424;-66
2023/10/03 14:10:01;;;;;;;6.07;2.00;;;;;;;;;;4995072;28;92471;-66
2023/10/03 14:12:27;;;;;;;4.72;1.73;;;;;;;;;;4995712;28;93173;-66
2023/10/03 14:14:55;;;;;;;5.43;1.98;;;;;;;;;;4997997;28;93430;-66
2023/10/03 14:17:21;;;;;;;13.35;4.30;;;;;;;;;;4994911;28;93444;-66
2023/10/03 14:19:48;;;;;;;29.88;12.57;;;;;;;;;;4995076;28;92385;-66
2023/10/03 14:22:14;;;;;;;113.57;59.33;;;;;;;;;;4995233;28;91679;-64
2023/10/03 14:24:40;;;;;;;114.35;68.35;;;;;;;;;;4993628;28;92504;-64
2023/10/03 14:27:07;;;;;;;138.65;86.85;;;;;;;;;;4989468;28;92618;-64
2023/10/03 14:29:33;;;;;;;145.75;112.97;;;;;;;;;;4992199;28;94852;-65
2023/10/03 14:32:00;;;;;;;259.80;183.93;;;;;;;;;;4993536;28;96733;-64
2023/10/03 14:34:27;;;;;;;370.15;282.15;;;;;;;;;;4993317;28;93391;-64
2023/10/03 14:36:53;;;;;;;347.77;271.30;;;;;;;;;;4995492;28;94799;-64
2023/10/03 14:39:24;;;;;;;403.52;294.88;;;;;;;;;;4992910;28;93406;-66
2023/10/03 14:41:51;;;;;;;354.23;262.20;;;;;;;;;;4992941;28;92723;-66